Time;durP1;ratioP1;P1;durP2;ratioP2;P2;SDS_P1;SDS_P2;PMS_P1;PMS_P2;Temp;Humidity;BMP_temperature;BMP_pressure;BME280_temperature;BME280_humidity;BME280_pressure;Samples;Min_cycle;Max_cycle;Signal;HPM_P1;HPM_P2
2023/07/01 00:00:59;;;;;;;3.67;2.13;;;;;;;19.86;46.58;100551.13;3553350;40;20119;-60
2023/07/01 00:03:30;;;;;;;3.08;1.90;;;;;;;19.84;45.87;100544.97;3552543;40;20131;-61
2023/07/01 00:05:58;;;;;;;5.20;2.20;;;;;;;19.82;46.49;100547.00;3549990;40;20711;-61
2023/07/01 00:08:23;;;;;;;4.80;2.22;;;;;;;19.84;46.36;100545.81;3540032;40;20065;-61
2023/07/01 00:10:49;;;;;;;3.08;1.77;;;;;;;19.82;45.90;100536.06;3554069;40;20057;-62
2023/07/01 00:13:15;;;;;;;3.85;2.10;;;;;;;19.82;47.04;100536.97;3549090;40;20077;-61
2023/07/01 00:15:40;;;;;;;4.70;2.17;;;;;;;19.82;46.03;100531.50;3554691;40;20327;-61
2023/07/01 00:18:06;;;;;;;4.22;1.92;;;;;;;19.79;46.96;100531.81;3553295;40;20065;-61
2023/07/01 00:20:32;;;;;;;3.22;2.10;;;;;;;19.61;47.06;100501.84;3552886;40;20056;-61
2023/07/01 00:22:57;;;;;;;8.52;1.90;;;;;;;19.78;46.59;100529.25;3552649;40;20079;-61
2023/07/01 00:25:23;;;;;;;3.53;2.03;;;;;;;19.56;46.45;100474.19;3552188;40;20081;-61
2023/07/01 00:27:49;;;;;;;4.35;1.98;;;;;;;19.74;46.91;100515.09;3552666;40;20527;-61
2023/07/01 00:30:15;;;;;;;6.68;2.30;;;;;;;19.73;47.34;100518.84;3554147;40;20135;-61
2023/07/01 00:32:41;;;;;;;5.18;2.20;;;;;;;19.73;47.55;100512.50;3553593;40;20066;-62
2023/07/01 00:35:07;;;;;;;6.00;2.10;;;;;;;19.74;47.54;100511.50;3549971;40;20058;-62
2023/07/01 00:37:32;;;;;;;3.45;2.17;;;;;;;19.74;47.79;100506.06;3552326;40;20109;-61
2023/07/01 00:39:58;;;;;;;4.65;2.00;;;;;;;19.75;47.63;100502.28;3550948;40;20065;-61
2023/07/01 00:42:24;;;;;;;4.63;1.80;;;;;;;19.71;47.99;100496.31;3554129;40;20645;-61
2023/07/01 00:44:49;;;;;;;2.90;2.08;;;;;;;19.69;48.08;100496.50;3555142;40;20053;-60
2023/07/01 00:47:16;;;;;;;5.63;2.13;;;;;;;19.69;48.04;100488.31;3552555;40;20144;-61
2023/07/01 00:49:42;;;;;;;4.53;2.25;;;;;;;19.70;48.72;100487.28;3552806;40;20387;-61
2023/07/01 00:52:08;;;;;;;3.42;2.15;;;;;;;19.68;47.78;100483.84;3551459;40;20053;-62
2023/07/01 00:54:35;;;;;;;3.65;1.90;;;;;;;19.68;48.87;100485.72;3551051;40;20132;-61
2023/07/01 00:57:04;;;;;;;3.08;2.10;;;;;;;19.65;48.52;100486.06;3552516;40;20135;-61
2023/07/01 00:59:33;;;;;;;7.78;2.40;;;;;;;19.59;49.79;100481.22;3552979;40;20136;-60
2023/07/01 01:02:25;;;;;;;3.67;1.90;;;;;;;19.53;49.84;100482.69;3557625;40;20123;-61
2023/07/01 01:05:10;;;;;;;5.28;2.20;;;;;;;19.54;49.89;100475.41;3553592;40;20420;-61
2023/07/01 01:08:08;;;;;;;7.03;2.13;;;;;;;19.36;49.61;100445.47;3553433;40;20053;-61
2023/07/01 01:10:40;;;;;;;6.60;2.17;;;;;;;19.51;50.40;100462.94;3556360;40;20087;-62
2023/07/01 01:13:07;;;;;;;4.73;2.30;;;;;;;19.49;49.85;100460.38;3551955;40;20121;-62
2023/07/01 01:15:33;;;;;;;6.32;2.25;;;;;;;19.52;49.97;100459.19;3554968;40;20130;-62
2023/07/01 01:18:04;;;;;;;5.75;1.85;;;;;;;19.46;50.73;100446.22;3553082;40;20374;-60
2023/07/01 01:20:34;;;;;;;3.55;2.00;;;;;;;19.55;50.65;100464.31;3553801;40;20381;-62
2023/07/01 01:23:13;;;;;;;3.25;1.83;;;;;;;19.55;51.41;100449.84;3552237;40;20526;-62
2023/07/01 01:26:13;;;;;;;5.78;2.15;;;;;;;19.56;51.85;100446.94;3552727;40;20422;-61
2023/07/01 01:28:39;;;;;;;3.90;1.90;;;;;;;19.56;52.23;100444.22;3547269;40;20515;-62
2023/07/01 01:31:05;;;;;;;4.80;2.00;;;;;;;19.61;52.42;100443.75;3553649;40;20081;-61
2023/07/01 01:33:31;;;;;;;5.80;2.08;;;;;;;19.59;52.79;100441.16;3554460;40;20064;-62
2023/07/01 01:36:29;;;;;;;3.97;1.77;;;;;;;19.57;53.52;100445.94;3554140;40;20479;-61
2023/07/01 01:39:05;;;;;;;4.40;2.28;;;;;;;19.56;54.74;100432.47;3555179;40;20060;-61
2023/07/01 01:41:52;;;;;;;4.32;1.90;;;;;;;19.47;55.30;100437.00;3552908;40;20073;-60
2023/07/01 01:44:31;;;;;;;3.78;2.20;;;;;;;19.43;55.84;100441.06;3551751;40;20644;-61
2023/07/01 01:46:58;;;;;;;3.80;2.03;;;;;;;19.40;57.48;100425.88;3552553;40;20076;-60
2023/07/01 01:49:27;;;;;;;3.45;2.20;;;;;;;19.38;56.47;100429.81;3553890;40;20068;-61
2023/07/01 01:51:55;;;;;;;3.47;1.77;;;;;;;19.32;57.00;100425.00;3551774;40;20079;-60
2023/07/01 01:54:24;;;;;;;4.22;2.10;;;;;;;19.12;57.34;100392.50;3552228;40;20482;-61
2023/07/01 01:56:51;;;;;;;4.88;2.53;;;;;;;19.28;57.08;100419.00;3548185;40;20300;-61
2023/07/01 01:59:17;;;;;;;5.70;2.65;;;;;;;19.17;56.69;100401.06;3553019;40;20412;-61
2023/07/01 02:01:43;;;;;;;4.97;2.50;;;;;;;19.23;56.78;100405.88;3554463;40;20131;-61
2023/07/01 02:04:08;;;;;;;7.65;2.33;;;;;;;19.18;57.01;100405.50;3550849;40;20050;-61
2023/07/01 02:06:34;;;;;;;5.75;2.70;;;;;;;19.18;57.20;100405.50;3551072;40;20307;-61
2023/07/01 02:09:00;;;;;;;4.85;2.63;;;;;;;19.16;57.96;100404.81;3552307;40;20121;-60
2023/07/01 02:11:25;;;;;;;5.00;2.25;;;;;;;19.14;57.09;100411.44;3552292;40;20068;-62
2023/07/01 02:13:51;;;;;;;5.25;2.25;;;;;;;19.13;58.40;100407.88;3549821;40;20131;-62
2023/07/01 02:16:17;;;;;;;4.95;2.20;;;;;;;18.93;58.24;100365.50;3552610;40;20059;-61
2023/07/01 02:18:42;;;;;;;4.88;2.35;;;;;;;19.11;57.65;100400.84;3553378;40;20400;-62
2023/07/01 02:21:08;;;;;;;5.75;2.50;;;;;;;19.09;58.66;100397.44;3551609;40;20060;-61
2023/07/01 02:23:34;;;;;;;6.10;2.30;;;;;;;19.01;58.35;100390.06;3549577;40;20072;-61
2023/07/01 02:25:59;;;;;;;4.38;2.40;;;;;;;19.06;58.23;100397.75;3552075;40;20557;-61
2023/07/01 02:28:25;;;;;;;5.90;2.50;;;;;;;19.05;59.02;100402.34;3549612;40;20099;-61
2023/07/01 02:30:50;;;;;;;9.73;2.85;;;;;;;19.04;60.45;100395.19;3552265;40;20198;-61
2023/07/01 02:33:16;;;;;;;6.28;2.25;;;;;;;18.96;63.11;100392.41;3553144;40;20073;-61
2023/07/01 02:35:42;;;;;;;4.10;2.17;;;;;;;18.82;64.62;100377.50;3553401;40;20230;-62
2023/07/01 02:38:08;;;;;;;2.92;2.00;;;;;;;18.78;65.37;100379.72;3552239;40;20065;-61
2023/07/01 02:40:33;;;;;;;4.25;2.25;;;;;;;18.68;66.79;100373.47;3554155;40;20049;-62
2023/07/01 02:42:59;;;;;;;4.95;2.60;;;;;;;18.55;67.50;100346.66;3550800;40;20060;-62
2023/07/01 02:45:26;;;;;;;3.83;2.15;;;;;;;18.57;67.76;100365.53;3551348;40;20406;-61
2023/07/01 02:47:51;;;;;;;8.93;2.28;;;;;;;18.51;68.73;100360.72;3552433;40;20130;-62
2023/07/01 02:50:17;;;;;;;5.57;2.33;;;;;;;18.45;70.01;100356.75;3553325;40;20081;-61
2023/07/01 02:52:42;;;;;;;4.30;2.40;;;;;;;18.33;70.50;100358.91;3553326;40;20056;-62
2023/07/01 02:55:08;;;;;;;4.13;2.53;;;;;;;18.30;70.97;100369.25;3552569;40;20120;-61
2023/07/01 02:57:34;;;;;;;6.13;2.22;;;;;;;18.23;71.83;100362.69;3548624;40;20262;-62
2023/07/01 03:00:00;;;;;;;3.63;2.25;;;;;;;18.16;71.69;100354.31;3549614;40;20057;-62
2023/07/01 03:02:25;;;;;;;4.72;2.30;;;;;;;18.19;72.52;100359.44;3552862;40;20049;-61
2023/07/01 03:04:51;;;;;;;2.63;2.00;;;;;;;17.96;72.63;100329.13;3552654;40;20056;-62
2023/07/01 03:07:16;;;;;;;6.15;2.30;;;;;;;18.14;73.50;100363.63;3551458;40;20627;-61
2023/07/01 03:09:42;;;;;;;5.38;2.13;;;;;;;18.11;73.22;100351.22;3554979;40;20061;-62
2023/07/01 03:12:08;;;;;;;3.90;2.30;;;;;;;18.09;73.36;100354.06;3553347;40;20053;-62
2023/07/01 03:14:33;;;;;;;4.47;2.60;;;;;;;18.07;74.51;100347.06;3552261;40;20299;-62
2023/07/01 03:16:59;;;;;;;3.75;2.55;;;;;;;18.03;75.04;100351.13;3548435;40;20125;-62
2023/07/01 03:19:25;;;;;;;2.80;2.15;;;;;;;17.93;76.42;100342.19;3552942;40;20058;-62
2023/07/01 03:21:50;;;;;;;3.90;2.40;;;;;;;17.86;76.96;100331.91;3550979;40;20325;-62
2023/07/01 03:24:16;;;;;;;3.03;2.17;;;;;;;17.81;76.82;100333.38;3551361;40;20208;-62
2023/07/01 03:26:43;;;;;;;4.85;2.30;;;;;;;17.76;77.45;100335.66;3553703;40;20068;-61
2023/07/01 03:29:08;;;;;;;4.13;2.20;;;;;;;17.70;77.83;100320.84;3551566;40;20057;-61
2023/07/01 03:31:34;;;;;;;3.58;2.50;;;;;;;17.74;77.86;100327.69;3549286;40;20448;-62
2023/07/01 03:34:00;;;;;;;3.28;2.58;;;;;;;17.70;77.91;100325.44;3551740;40;20113;-61
2023/07/01 03:36:26;;;;;;;4.03;2.78;;;;;;;17.53;78.39;100305.34;3552647;40;20510;-63
2023/07/01 03:38:52;;;;;;;3.17;2.30;;;;;;;17.67;78.33;100328.44;3552695;40;20061;-62
2023/07/01 03:41:18;;;;;;;5.22;2.70;;;;;;;17.62;78.44;100326.19;3552552;40;20066;-62
2023/07/01 03:43:44;;;;;;;3.40;2.55;;;;;;;17.58;79.76;100314.75;3552896;40;20079;-62
2023/07/01 03:46:09;;;;;;;3.10;2.80;;;;;;;17.59;80.95;100311.03;3550469;40;20079;-63
2023/07/01 03:48:35;;;;;;;3.92;2.55;;;;;;;17.52;81.63;100317.22;3552159;40;20084;-63
2023/07/01 03:51:01;;;;;;;3.92;2.83;;;;;;;17.39;82.22;100315.72;3553270;40;20069;-63
2023/07/01 03:53:26;;;;;;;3.28;2.53;;;;;;;17.33;83.94;100319.03;3551751;40;21362;-63
2023/07/01 03:55:52;;;;;;;4.30;2.80;;;;;;;17.29;84.83;100317.66;3553144;40;20620;-63
2023/07/01 03:58:21;;;;;;;3.35;2.90;;;;;;;17.23;85.70;100307.38;3552695;40;20435;-62
2023/07/01 04:00:52;;;;;;;3.72;2.53;;;;;;;17.21;86.59;100306.66;3550952;40;20061;-62
2023/07/01 04:03:18;;;;;;;4.95;2.85;;;;;;;17.21;87.41;100308.53;3554400;40;20061;-63
2023/07/01 04:05:43;;;;;;;2.63;2.42;;;;;;;17.17;87.10;100302.53;3552917;40;20494;-62
2023/07/01 04:08:09;;;;;;;4.30;2.83;;;;;;;17.10;88.11;100298.72;3553122;40;20244;-62
2023/07/01 04:10:34;;;;;;;3.08;2.78;;;;;;;17.07;88.75;100304.47;3554271;40;20053;-62
2023/07/01 04:13:01;;;;;;;3.50;3.10;;;;;;;16.96;89.35;100291.06;3549807;40;20477;-61
2023/07/01 04:15:27;;;;;;;3.65;3.13;;;;;;;16.94;91.25;100291.22;3553806;40;20057;-62
2023/07/01 04:17:54;;;;;;;4.65;3.13;;;;;;;16.93;92.16;100287.63;3543436;40;20412;-64
2023/07/01 04:20:20;;;;;;;4.38;3.08;;;;;;;16.94;92.64;100278.50;3553122;40;20069;-62
2023/07/01 04:22:47;;;;;;;4.47;3.10;;;;;;;16.96;92.26;100280.19;3552167;40;20392;-63
2023/07/01 04:25:13;;;;;;;4.13;3.22;;;;;;;16.93;92.76;100278.63;3553673;40;20057;-61
2023/07/01 04:27:42;;;;;;;3.63;2.75;;;;;;;16.93;92.91;100276.75;3553079;40;20584;-62
2023/07/01 04:30:08;;;;;;;2.83;2.53;;;;;;;16.93;93.24;100282.19;3552510;40;20049;-62
2023/07/01 04:32:35;;;;;;;3.33;3.00;;;;;;;16.87;93.07;100266.53;3549532;40;20395;-62
2023/07/01 04:35:01;;;;;;;3.03;2.83;;;;;;;16.86;94.05;100264.81;3549193;40;20528;-63
2023/07/01 04:37:27;;;;;;;2.83;2.63;;;;;;;16.90;93.77;100276.22;3552281;40;20065;-62
2023/07/01 04:39:53;;;;;;;2.90;2.65;;;;;;;16.86;93.93;100270.22;3553019;40;20076;-63
2023/07/01 04:42:18;;;;;;;3.20;2.90;;;;;;;16.85;93.77;100273.97;3555199;40;20557;-63
2023/07/01 04:44:44;;;;;;;2.83;2.63;;;;;;;16.91;93.84;100265.22;3553228;40;20505;-63
2023/07/01 04:47:11;;;;;;;2.75;2.53;;;;;;;16.89;94.90;100259.06;3550724;40;20082;-63
2023/07/01 04:49:37;;;;;;;2.60;2.40;;;;;;;16.36;95.16;100174.69;3551503;40;20050;-63
2023/07/01 04:52:03;;;;;;;2.78;2.58;;;;;;;16.75;94.88;100224.28;3554779;40;20065;-62
2023/07/01 04:54:28;;;;;;;2.50;2.30;;;;;;;16.99;94.48;100258.19;3551843;40;20392;-62
2023/07/01 04:56:54;;;;;;;2.97;2.78;;;;;;;17.05;94.19;100268.44;3554240;40;20428;-63
2023/07/01 04:59:20;;;;;;;2.97;2.67;;;;;;;17.03;95.18;100254.16;3549364;40;20053;-63
2023/07/01 05:01:45;;;;;;;2.58;2.38;;;;;;;16.86;94.79;100224.09;3550744;40;20072;-63
2023/07/01 05:04:11;;;;;;;2.92;2.60;;;;;;;17.04;94.72;100240.44;3549602;40;20056;-63
2023/07/01 05:06:36;;;;;;;4.03;2.70;;;;;;;17.07;94.72;100239.28;3549230;40;20099;-62
2023/07/01 05:09:04;;;;;;;2.50;2.40;;;;;;;17.12;94.04;100248.66;3552596;40;20062;-63
2023/07/01 05:11:30;;;;;;;3.15;2.85;;;;;;;17.10;93.47;100238.97;3554817;40;20053;-62
2023/07/01 05:13:56;;;;;;;3.10;2.80;;;;;;;17.11;93.80;100248.84;3550961;40;20093;-63
2023/07/01 05:16:22;;;;;;;3.38;2.38;;;;;;;17.10;93.55;100241.69;3554984;40;20745;-63
2023/07/01 05:18:48;;;;;;;2.97;2.60;;;;;;;17.12;93.77;100239.66;3554542;40;20137;-62
2023/07/01 05:21:13;;;;;;;3.67;2.75;;;;;;;17.16;94.25;100241.94;3553099;40;20163;-62
2023/07/01 05:23:39;;;;;;;3.00;2.67;;;;;;;17.18;93.00;100237.19;3552343;40;20068;-63
2023/07/01 05:26:05;;;;;;;2.75;2.47;;;;;;;17.15;93.27;100247.50;3552871;40;20388;-63
2023/07/01 05:28:30;;;;;;;2.60;2.40;;;;;;;17.16;93.21;100251.97;3552216;40;20071;-63
2023/07/01 05:30:56;;;;;;;2.78;2.50;;;;;;;17.12;93.41;100243.22;3552087;40;20056;-62
2023/07/01 05:33:21;;;;;;;3.05;2.67;;;;;;;17.13;93.98;100234.09;3552258;40;20101;-62
2023/07/01 05:35:47;;;;;;;3.33;2.92;;;;;;;17.15;94.48;100231.22;3553433;40;20067;-62
2023/07/01 05:38:13;;;;;;;3.00;2.70;;;;;;;17.16;93.62;100238.38;3550808;40;20057;-61
2023/07/01 05:40:39;;;;;;;2.90;2.60;;;;;;;17.15;93.58;100225.78;3554128;40;20469;-62
2023/07/01 05:43:05;;;;;;;2.70;2.50;;;;;;;17.16;93.38;100228.38;3552241;40;20064;-62
2023/07/01 05:45:31;;;;;;;4.18;2.40;;;;;;;17.15;94.43;100231.22;3550960;40;20064;-62
2023/07/01 05:47:57;;;;;;;2.50;2.22;;;;;;;17.16;94.05;100227.50;3552814;40;20061;-62
2023/07/01 05:50:24;;;;;;;3.70;2.80;;;;;;;17.14;93.98;100234.94;3554697;40;20347;-62
2023/07/01 05:52:49;;;;;;;2.90;2.60;;;;;;;17.21;94.84;100229.75;3552332;40;20060;-62
2023/07/01 05:55:15;;;;;;;3.35;3.08;;;;;;;17.21;93.67;100224.31;3551378;40;20400;-63
2023/07/01 05:57:41;;;;;;;2.78;2.40;;;;;;;17.20;94.20;100223.47;3552678;40;20103;-62
2023/07/01 06:00:09;;;;;;;3.60;2.67;;;;;;;17.19;94.56;100229.94;3550526;40;20370;-63
2023/07/01 06:02:35;;;;;;;3.10;2.50;;;;;;;17.19;94.12;100227.22;3553222;40;20061;-63
2023/07/01 06:05:00;;;;;;;2.55;2.28;;;;;;;17.22;94.32;100226.91;3549856;40;20645;-63
2023/07/01 06:07:26;;;;;;;2.80;2.60;;;;;;;17.25;93.98;100221.13;3552921;40;20057;-62
2023/07/01 06:09:52;;;;;;;2.97;2.30;;;;;;;17.26;93.97;100224.75;3553040;40;20063;-63
2023/07/01 06:12:17;;;;;;;3.60;2.70;;;;;;;17.26;93.96;100216.59;3550910;40;20116;-63
2023/07/01 06:14:43;;;;;;;4.25;2.80;;;;;;;17.31;95.17;100215.09;3553284;40;20371;-63
2023/07/01 06:17:09;;;;;;;2.65;2.45;;;;;;;17.36;95.63;100210.06;3551128;40;20093;-63
2023/07/01 06:19:34;;;;;;;2.33;2.13;;;;;;;17.29;94.81;100199.97;3542600;40;20376;-63
2023/07/01 06:22:00;;;;;;;2.70;2.50;;;;;;;17.47;94.69;100208.97;3549674;40;20049;-63
2023/07/01 06:24:26;;;;;;;4.00;2.40;;;;;;;17.45;94.87;100210.16;3553059;40;20124;-63
2023/07/01 06:26:51;;;;;;;2.50;2.30;;;;;;;17.45;94.97;100210.16;3554203;40;20455;-63
2023/07/01 06:29:17;;;;;;;4.22;2.42;;;;;;;17.45;95.47;100204.72;3550688;40;20415;-63
2023/07/01 06:31:43;;;;;;;2.50;2.30;;;;;;;17.45;95.24;100200.16;3554183;40;20448;-63
2023/07/01 06:34:15;;;;;;;2.60;2.40;;;;;;;17.48;94.96;100204.41;3551668;40;20065;-63
2023/07/01 06:36:41;;;;;;;2.83;2.53;;;;;;;17.49;95.49;100200.69;3550223;40;20057;-63
2023/07/01 06:39:07;;;;;;;2.30;2.10;;;;;;;17.52;95.62;100201.22;3552536;40;20143;-63
2023/07/01 06:41:33;;;;;;;3.00;2.33;;;;;;;17.59;95.41;100201.47;3551128;40;20392;-63
2023/07/01 06:43:59;;;;;;;4.53;2.03;;;;;;;17.65;93.15;100211.72;3553261;40;20049;-63
2023/07/01 06:46:26;;;;;;;3.42;2.22;;;;;;;17.57;93.96;100203.47;3542460;40;20061;-63
2023/07/01 06:48:52;;;;;;;2.80;2.60;;;;;;;17.50;93.07;100188.78;3553309;40;20221;-63
2023/07/01 06:51:17;;;;;;;1.92;1.83;;;;;;;17.59;93.85;100207.75;3551214;40;20159;-63
2023/07/01 06:53:43;;;;;;;2.83;2.28;;;;;;;17.54;93.14;100198.38;3550306;40;20061;-63
2023/07/01 06:56:09;;;;;;;2.25;2.10;;;;;;;17.51;93.30;100204.97;3551790;40;20101;-63
2023/07/01 06:58:35;;;;;;;2.30;2.20;;;;;;;17.57;93.82;100195.31;3552201;40;20469;-63
2023/07/01 07:01:01;;;;;;;2.53;1.75;;;;;;;17.57;94.13;100203.47;3550968;40;20410;-63
2023/07/01 07:03:26;;;;;;;2.25;2.08;;;;;;;17.58;93.81;100205.19;3553889;40;20061;-63
2023/07/01 07:05:54;;;;;;;2.17;1.98;;;;;;;17.56;93.53;100194.47;3551906;40;20390;-62
2023/07/01 07:08:20;;;;;;;3.67;2.20;;;;;;;17.57;93.96;100198.91;3545311;40;20047;-62
2023/07/01 07:10:46;;;;;;;2.25;2.00;;;;;;;17.57;93.56;100203.47;3546406;40;20061;-62
2023/07/01 07:13:12;;;;;;;2.35;2.13;;;;;;;17.61;93.72;100207.59;3545974;40;20076;-63
2023/07/01 07:15:38;;;;;;;2.15;1.92;;;;;;;17.58;93.92;100199.75;3554066;40;20270;-62
2023/07/01 07:18:07;;;;;;;3.38;1.88;;;;;;;17.61;93.36;100197.56;3553067;40;20045;-62
2023/07/01 07:20:35;;;;;;;1.98;1.88;;;;;;;17.63;93.64;100191.97;3554168;40;20045;-62
2023/07/01 07:23:01;;;;;;;2.90;2.08;;;;;;;17.68;93.36;100200.53;3549849;40;20057;-63
2023/07/01 07:25:27;;;;;;;2.42;2.17;;;;;;;17.70;93.68;100193.06;3554916;40;20460;-62
2023/07/01 07:27:53;;;;;;;2.13;2.03;;;;;;;17.72;93.26;100195.63;3553262;40;20053;-62
2023/07/01 07:30:18;;;;;;;2.20;2.00;;;;;;;17.71;94.22;100192.06;3554621;40;20098;-62
2023/07/01 07:32:44;;;;;;;2.15;2.05;;;;;;;17.75;93.05;100201.59;3553913;40;20093;-63
2023/07/01 07:35:10;;;;;;;2.55;2.30;;;;;;;17.71;93.60;100194.78;3554998;40;20077;-62
2023/07/01 07:37:36;;;;;;;2.38;2.10;;;;;;;17.73;94.59;100186.44;3553895;40;20049;-62
2023/07/01 07:40:05;;;;;;;3.40;2.10;;;;;;;17.75;93.86;100190.72;3552652;40;20424;-63
2023/07/01 07:42:31;;;;;;;3.65;2.22;;;;;;;17.82;94.08;100186.41;3554316;40;20061;-62
2023/07/01 07:44:57;;;;;;;2.50;2.30;;;;;;;17.85;93.85;100196.94;3553774;40;20064;-62
2023/07/01 07:47:23;;;;;;;2.78;2.58;;;;;;;17.93;93.64;100187.19;3552722;40;20053;-63
2023/07/01 07:49:49;;;;;;;3.08;2.40;;;;;;;17.61;94.54;100121.47;3554434;40;20341;-63
2023/07/01 07:52:14;;;;;;;2.42;2.22;;;;;;;18.01;93.30;100184.50;3541726;40;20092;-63
2023/07/01 07:54:45;;;;;;;2.20;2.00;;;;;;;18.01;92.16;100185.34;3555561;40;20053;-63
2023/07/01 07:57:12;;;;;;;2.00;1.90;;;;;;;18.03;92.65;100187.94;3549912;40;21570;-63
2023/07/01 07:59:41;;;;;;;2.25;2.05;;;;;;;18.02;92.71;100170.75;3553252;40;20065;-63
2023/07/01 08:02:08;;;;;;;2.15;1.98;;;;;;;18.10;92.64;100191.72;3554259;40;20084;-63
2023/07/01 08:04:33;;;;;;;2.70;2.03;;;;;;;17.75;92.72;100120.03;3553193;40;20065;-63
2023/07/01 08:06:59;;;;;;;2.15;2.00;;;;;;;18.16;94.40;100174.75;3554430;40;20525;-63
2023/07/01 08:09:25;;;;;;;2.00;1.90;;;;;;;18.20;93.21;100189.72;3555228;40;20526;-62
2023/07/01 08:11:53;;;;;;;2.03;1.92;;;;;;;18.21;93.56;100177.84;3554050;40;20477;-63
2023/07/01 08:14:21;;;;;;;2.22;1.80;;;;;;;18.23;94.25;100172.25;3553267;40;20120;-63
2023/07/01 08:16:47;;;;;;;2.72;1.80;;;;;;;18.24;93.61;100177.53;3550389;40;20049;-63
2023/07/01 08:19:13;;;;;;;1.70;1.60;;;;;;;18.31;93.45;100177.75;3551463;40;20072;-62
2023/07/01 08:21:38;;;;;;;1.85;1.73;;;;;;;18.27;92.97;100173.66;3551109;40;20063;-63
2023/07/01 08:24:08;;;;;;;1.50;1.50;;;;;;;18.30;94.79;100176.91;3555020;40;20060;-63
2023/07/01 08:26:34;;;;;;;1.92;1.83;;;;;;;18.33;94.69;100184.75;3552987;40;20473;-62
2023/07/01 08:28:59;;;;;;;1.40;1.17;;;;;;;18.31;95.47;100178.59;3553271;40;20093;-62
2023/07/01 08:31:25;;;;;;;2.03;1.58;;;;;;;18.31;95.63;100181.31;3553519;40;20400;-62
2023/07/01 08:33:51;;;;;;;1.40;1.40;;;;;;;18.31;96.00;100178.59;3554205;40;20057;-63
2023/07/01 08:36:16;;;;;;;1.50;1.40;;;;;;;18.34;96.08;100180.16;3551663;40;20068;-62
2023/07/01 08:38:42;;;;;;;2.00;1.27;;;;;;;18.35;97.26;100170.97;3550659;40;20070;-63
2023/07/01 08:41:15;;;;;;;1.50;1.40;;;;;;;18.30;96.10;100162.44;3555891;40;20426;-62
2023/07/01 08:43:44;;;;;;;1.27;1.17;;;;;;;18.23;96.22;100156.75;3552972;40;20071;-63
2023/07/01 08:46:15;;;;;;;1.15;1.15;;;;;;;18.23;96.38;100151.31;3553110;40;20439;-63
2023/07/01 08:48:44;;;;;;;5.95;5.35;;;;;;;18.44;96.88;100166.44;3550301;40;20740;-63
2023/07/01 08:51:21;;;;;;;1.90;1.73;;;;;;;18.40;96.35;100157.75;3552209;40;20056;-63
2023/07/01 08:53:50;;;;;;;1.33;1.10;;;;;;;18.50;96.12;100179.38;3550593;40;20053;-63
2023/07/01 08:56:20;;;;;;;0.93;0.75;;;;;;;18.49;95.91;100172.22;3551944;40;20128;-63
2023/07/01 08:58:47;;;;;;;1.00;1.00;;;;;;;18.48;95.29;100162.34;3553940;40;20065;-62
2023/07/01 09:01:16;;;;;;;1.00;0.82;;;;;;;18.01;96.65;100082.00;3552692;40;20064;-63
2023/07/01 09:03:46;;;;;;;0.80;0.80;;;;;;;18.58;97.74;100171.25;3552314;40;20087;-62
2023/07/01 09:06:11;;;;;;;1.00;0.68;;;;;;;18.66;97.96;100171.28;3552597;40;20475;-63
2023/07/01 09:08:38;;;;;;;3.03;1.48;;;;;;;18.67;96.86;100164.81;3553448;40;20064;-63
2023/07/01 09:11:05;;;;;;;37.22;6.13;;;;;;;18.74;96.83;100165.94;3555061;40;20065;-63
2023/07/01 09:13:31;;;;;;;2.30;1.40;;;;;;;18.76;97.36;100165.75;3551137;40;20164;-63
2023/07/01 09:15:57;;;;;;;4.88;1.42;;;;;;;18.76;96.15;100174.78;3549167;40;20076;-63
2023/07/01 09:18:25;;;;;;;1.10;0.80;;;;;;;18.75;96.47;100164.91;3552991;40;20071;-62
2023/07/01 09:20:53;;;;;;;0.90;0.90;;;;;;;18.76;97.51;100169.31;3542445;40;20061;-63
2023/07/01 09:23:34;;;;;;;1.17;1.17;;;;;;;18.79;97.24;100163.56;3553913;40;20063;-63
2023/07/01 09:26:08;;;;;;;0.90;0.90;;;;;;;18.90;97.87;100161.53;3554203;40;20126;-63
2023/07/01 09:28:35;;;;;;;0.90;0.88;;;;;;;18.91;96.98;100160.53;3550371;40;20351;-62
2023/07/01 09:31:04;;;;;;;1.67;1.50;;;;;;;18.99;97.22;100164.13;3550443;40;20123;-62
2023/07/01 09:33:31;;;;;;;0.98;0.98;;;;;;;18.95;96.70;100137.41;3550790;40;20053;-63
2023/07/01 09:36:02;;;;;;;1.25;1.15;;;;;;;19.02;95.21;100152.91;3551421;40;20087;-63
2023/07/01 09:38:33;;;;;;;2.00;0.80;;;;;;;19.10;96.71;100153.97;3553919;40;20053;-62
2023/07/01 09:41:13;;;;;;;1.40;1.35;;;;;;;19.10;96.09;100154.81;3554813;40;20623;-62
2023/07/01 09:43:40;;;;;;;1.52;1.17;;;;;;;19.01;96.55;100134.84;3552333;40;20192;-63
2023/07/01 09:46:07;;;;;;;0.90;0.90;;;;;;;19.11;97.39;100140.16;3550963;40;20385;-63
2023/07/01 09:48:33;;;;;;;0.85;0.85;;;;;;;19.09;96.95;100147.63;3550096;40;20065;-63
2023/07/01 09:51:05;;;;;;;1.30;1.20;;;;;;;19.13;96.54;100145.44;3551658;40;20061;-63
2023/07/01 09:53:35;;;;;;;1.17;1.13;;;;;;;19.18;98.03;100134.88;3550237;40;20059;-63
2023/07/01 09:56:05;;;;;;;1.05;1.00;;;;;;;19.16;96.25;100126.91;3551931;40;20065;-63
2023/07/01 09:58:32;;;;;;;1.38;1.27;;;;;;;19.20;95.53;100144.59;3552097;40;20937;-63
2023/07/01 10:01:00;;;;;;;1.15;1.10;;;;;;;19.13;95.80;100132.69;3550917;40;20671;-62
2023/07/01 10:03:27;;;;;;;1.17;1.08;;;;;;;19.21;96.54;100140.84;3552410;40;20380;-63
2023/07/01 10:05:54;;;;;;;2.42;1.70;;;;;;;19.20;95.51;100144.59;3551783;40;20053;-62
2023/07/01 10:08:21;;;;;;;6.03;5.43;;;;;;;19.13;96.16;100143.56;3552588;40;20068;-62
2023/07/01 10:11:24;;;;;;;1.13;1.13;;;;;;;19.18;95.17;100145.78;3553297;40;20370;-63
2023/07/01 10:13:57;;;;;;;1.70;1.50;;;;;;;19.15;97.14;100141.50;3551971;40;20404;-63
2023/07/01 10:16:23;;;;;;;1.80;1.67;;;;;;;19.15;98.34;100141.50;3552335;40;20070;-63
2023/07/01 10:18:49;;;;;;;1.70;1.60;;;;;;;19.14;97.85;100131.66;3551162;40;20057;-63
2023/07/01 10:21:32;;;;;;;1.70;1.60;;;;;;;19.06;97.43;100123.47;3551891;40;20068;-63
2023/07/01 10:24:00;;;;;;;1.77;1.67;;;;;;;19.15;97.87;100136.06;3551077;40;20081;-63
2023/07/01 10:26:33;;;;;;;2.08;1.88;;;;;;;19.17;96.85;100134.03;3551299;40;20072;-63
2023/07/01 10:29:28;;;;;;;2.15;2.05;;;;;;;19.15;97.97;100136.06;3550344;40;20091;-63
2023/07/01 10:32:11;;;;;;;2.40;2.20;;;;;;;19.20;97.84;100128.25;3552454;40;20080;-63
2023/07/01 10:34:55;;;;;;;2.13;2.03;;;;;;;19.29;98.33;100128.28;3550959;40;20161;-63
2023/07/01 10:37:25;;;;;;;2.55;2.20;;;;;;;19.39;98.23;100131.69;3549505;40;20053;-63
2023/07/01 10:39:51;;;;;;;2.70;2.58;;;;;;;19.49;97.55;100132.38;3552192;40;20061;-64
2023/07/01 10:42:33;;;;;;;2.53;2.42;;;;;;;19.58;96.53;100131.34;3544205;40;20146;-63
2023/07/01 10:45:11;;;;;;;2.05;1.85;;;;;;;19.70;95.92;100140.94;3551740;40;20065;-63
2023/07/01 10:48:03;;;;;;;2.50;2.40;;;;;;;19.38;94.11;100059.13;3551284;40;20041;-63
2023/07/01 10:50:29;;;;;;;2.42;2.33;;;;;;;19.78;94.41;100101.88;3552840;40;20049;-63
2023/07/01 10:53:01;;;;;;;2.97;2.78;;;;;;;19.99;93.01;100125.91;3550360;40;20376;-63
2023/07/01 10:55:49;;;;;;;2.88;2.67;;;;;;;20.04;93.56;100126.22;3549784;40;20100;-63
2023/07/01 10:58:27;;;;;;;2.90;2.70;;;;;;;20.18;93.84;100130.97;3551578;40;20889;-63
2023/07/01 11:00:58;;;;;;;3.30;3.10;;;;;;;20.24;91.35;100125.84;3551582;40;20529;-63
2023/07/01 11:03:33;;;;;;;3.03;2.75;;;;;;;20.28;90.60;100124.47;3550986;40;20057;-62
2023/07/01 11:05:59;;;;;;;2.90;2.70;;;;;;;20.35;91.38;100123.59;3551160;40;20367;-62
2023/07/01 11:08:27;;;;;;;3.00;2.80;;;;;;;20.45;90.69;100128.84;3551022;40;20056;-63
2023/07/01 11:10:53;;;;;;;2.83;2.63;;;;;;;20.43;88.43;100106.34;3550858;40;20436;-63
2023/07/01 11:13:18;;;;;;;2.80;2.70;;;;;;;20.53;88.07;100125.28;3553126;40;20065;-63
2023/07/01 11:16:09;;;;;;;3.33;3.03;;;;;;;20.64;87.96;100128.44;3551620;40;20098;-63
2023/07/01 11:18:45;;;;;;;3.20;2.90;;;;;;;20.82;87.75;100127.38;3552782;40;20067;-63
2023/07/01 11:21:27;;;;;;;3.50;3.20;;;;;;;20.98;86.86;100120.97;3550378;40;20131;-63
2023/07/01 11:23:56;;;;;;;2.90;2.75;;;;;;;21.12;85.60;100119.31;3548472;40;20541;-63
2023/07/01 11:26:26;;;;;;;3.30;3.10;;;;;;;21.27;84.24;100109.31;3549689;40;20105;-63
2023/07/01 11:28:52;;;;;;;4.22;3.15;;;;;;;21.43;82.55;100125.63;3550144;40;20056;-63